Coxs Mills, WV (26342)

10:39 AM EST on March 02, 2015 (GMT -0500)
Quirky Towers, Vadis | Change Station
CLOSE
Current Station
Personal Weather Station
Location: Alum Bridge, WV
Elevation: 837 ft
Nearby Weather Stations

Elev 837 ft 39.04 °N, 80.71 °W | Updated 12 seconds ago

Mostly Cloudy
Mostly Cloudy
36.0 °F
Feels Like 36 °F
N
2.2
Wind Variable Wind from SW
Gusts 8.3 mph

Today
High -- | Low -- °F
--% Chance of Precip.
Yesterday
High -- | Low -- °F
Precip. -- in
6:54 AM 6:16 PM
Waxing Gibbous, 92% visible
Pressure 30.39 in
Visibility 10.0 miles
Clouds Few 2000 ft
Scattered Clouds 2800 ft
Windchill 36 °F
Dew Point 23 °F
Humidity 58%
Rainfall 0.05 in
Snow Depth Not available.
UV 3 out of 12
Pollen 1.30 out of 12
Air Quality Not available.
Flu Activity Not available.
METAR KW22 021515Z AUTO 29008KT 10SM FEW020 SCT028 M01/M05 A3039 RMK AO2

More Conditions Fewer Conditions

Pressure 30.39 in
Visibility 10.0 miles
Clouds Few 2000 ft
Scattered Clouds 2800 ft
Windchill 36 °F
Dew Point 23 °F
Humidity 58%
Rainfall 0.05 in
Snow Depth Not available.
UV 3 out of 12
Pollen 1.30 out of 12
Air Quality Not available.
Flu Activity Not available.
METAR KW22 021515Z AUTO 29008KT 10SM FEW020 SCT028 M01/M05 A3039 RMK AO2

More Conditions Fewer Conditions

10-Day Weather Forecast

Almanac

Astronomy

Mar. 02, 2015 Rise Set
Actual Time
Civil Twilight
Nautical Twilight
Astronomical Twilight
Moon
Length of Visible Light
Length of Day
Tomorrow will be .
, % of the Moon is Illuminated

Today's Extremes

State Highs State Lows

Community

WunderPhotos

Upload Photos

1,801,821 photos uploaded!

WunderBlogs® & News

Nearby

Air Quality

  Air Quality AQ Index Pollutant
Not available.

Snow Depth

Station Depth Elevation

Earthquake Activity

City Distance Mag. Time & Date
Minimum magnitude displayed is 2.5.

Coastal Water Temperatures

Place Temperature

Nearby Weather Stations